Time;durP1;ratioP1;P1;durP2;ratioP2;P2;SDS_P1;SDS_P2;PMS_P1;PMS_P2;Temp;Humidity;BMP_temperature;BMP_pressure;BME280_temperature;BME280_humidity;BME280_pressure;Samples;Min_cycle;Max_cycle;Signal;HPM_P1;HPM_P2
2023/06/25 00:01:49;;;;;;;14.25;8.13;;;;;;;;;;5095885;28;20105;-75
2023/06/25 00:04:15;;;;;;;11.02;7.75;;;;;;;;;;5094445;28;20040;-75
2023/06/25 00:06:41;;;;;;;11.38;8.32;;;;;;;;;;5095342;28;20821;-75
2023/06/25 00:09:07;;;;;;;11.40;8.18;;;;;;;;;;5094091;28;20040;-75
2023/06/25 00:11:33;;;;;;;14.50;8.98;;;;;;;;;;5082253;28;20058;-75
2023/06/25 00:13:59;;;;;;;10.23;8.32;;;;;;;;;;5077315;28;20162;-75
2023/06/25 00:16:29;;;;;;;11.55;7.95;;;;;;;;;;5093766;28;20043;-75
2023/06/25 00:18:55;;;;;;;13.63;8.85;;;;;;;;;;5094304;28;20055;-75
2023/06/25 00:21:22;;;;;;;14.00;8.20;;;;;;;;;;5094057;28;20044;-75
2023/06/25 00:23:48;;;;;;;12.57;8.60;;;;;;;;;;5095025;28;20040;-75
2023/06/25 00:26:14;;;;;;;13.32;8.65;;;;;;;;;;5095137;28;20124;-75
2023/06/25 00:28:40;;;;;;;13.48;8.30;;;;;;;;;;5093609;28;20040;-75
2023/06/25 00:31:06;;;;;;;13.25;8.70;;;;;;;;;;5077066;28;20044;-75
2023/06/25 00:33:32;;;;;;;12.07;8.85;;;;;;;;;;5079251;28;20036;-76
2023/06/25 00:35:58;;;;;;;14.13;9.10;;;;;;;;;;5075285;28;20471;-75
2023/06/25 00:38:25;;;;;;;14.48;9.77;;;;;;;;;;5093656;28;20040;-75
2023/06/25 00:40:51;;;;;;;15.82;9.45;;;;;;;;;;5094940;28;20503;-75
2023/06/25 00:43:21;;;;;;;18.08;9.93;;;;;;;;;;5076856;28;20067;-75
2023/06/25 00:45:47;;;;;;;13.35;9.32;;;;;;;;;;5093313;28;20062;-75
2023/06/25 00:48:13;;;;;;;12.18;8.73;;;;;;;;;;5093012;28;20488;-75
2023/06/25 00:50:40;;;;;;;11.85;8.50;;;;;;;;;;5093505;28;20392;-75
2023/06/25 00:53:08;;;;;;;12.93;9.13;;;;;;;;;;5093459;28;20489;-75
2023/06/25 00:55:35;;;;;;;13.13;9.10;;;;;;;;;;5093076;28;20118;-75
2023/06/25 00:58:01;;;;;;;15.60;9.48;;;;;;;;;;5076669;28;20508;-76
2023/06/25 01:00:28;;;;;;;16.48;10.65;;;;;;;;;;5093258;28;20039;-75
2023/06/25 01:03:12;;;;;;;13.95;9.57;;;;;;;;;;5093669;28;20043;-75
2023/06/25 01:05:44;;;;;;;14.07;9.93;;;;;;;;;;5094212;28;20047;-75
2023/06/25 01:08:11;;;;;;;18.17;10.35;;;;;;;;;;5093504;28;20485;-75
2023/06/25 01:10:38;;;;;;;15.23;10.35;;;;;;;;;;5092484;28;20043;-75
2023/06/25 01:13:04;;;;;;;15.50;9.48;;;;;;;;;;5076714;28;20511;-75
2023/06/25 01:15:30;;;;;;;14.32;9.45;;;;;;;;;;5092786;28;20437;-75
2023/06/25 01:17:57;;;;;;;13.00;9.80;;;;;;;;;;5093309;28;20081;-75
2023/06/25 01:20:27;;;;;;;16.45;9.93;;;;;;;;;;5092847;28;20047;-75
2023/06/25 01:22:57;;;;;;;14.68;9.55;;;;;;;;;;5075909;28;20050;-75
2023/06/25 01:25:23;;;;;;;14.85;9.88;;;;;;;;;;5092674;28;20044;-76
2023/06/25 01:27:50;;;;;;;15.15;9.65;;;;;;;;;;5092539;28;20071;-75
2023/06/25 01:30:17;;;;;;;14.27;9.57;;;;;;;;;;5093920;28;20074;-75
2023/06/25 01:32:44;;;;;;;14.10;9.63;;;;;;;;;;5092534;28;20465;-75
2023/06/25 01:35:13;;;;;;;15.30;10.52;;;;;;;;;;5076066;28;20046;-76
2023/06/25 01:37:39;;;;;;;18.55;10.63;;;;;;;;;;5092146;28;20115;-76
2023/06/25 01:40:07;;;;;;;15.45;10.68;;;;;;;;;;5093706;28;20097;-76
2023/06/25 01:42:34;;;;;;;13.25;9.75;;;;;;;;;;5093480;28;20048;-76
2023/06/25 01:45:00;;;;;;;15.07;9.82;;;;;;;;;;5093659;28;20068;-76
2023/06/25 01:47:26;;;;;;;13.20;9.48;;;;;;;;;;5092746;28;20446;-76
2023/06/25 01:49:52;;;;;;;13.82;9.10;;;;;;;;;;5074915;28;20043;-76
2023/06/25 01:52:18;;;;;;;16.60;10.20;;;;;;;;;;5075461;28;20115;-76
2023/06/25 01:54:46;;;;;;;14.13;9.68;;;;;;;;;;5091675;28;20129;-76
2023/06/25 01:57:12;;;;;;;12.70;9.52;;;;;;;;;;5075257;28;20032;-75
2023/06/25 01:59:38;;;;;;;14.25;9.00;;;;;;;;;;5057668;28;20492;-77
2023/06/25 02:02:04;;;;;;;14.60;9.40;;;;;;;;;;5087036;28;20123;-78
2023/06/25 02:04:30;;;;;;;16.67;10.10;;;;;;;;;;5092038;28;20489;-77
2023/06/25 02:06:56;;;;;;;14.55;9.73;;;;;;;;;;5090190;28;20558;-78
2023/06/25 02:09:22;;;;;;;15.32;9.75;;;;;;;;;;5066245;28;20044;-78
2023/06/25 02:11:48;;;;;;;12.75;9.65;;;;;;;;;;5091453;28;20055;-75
2023/06/25 02:14:15;;;;;;;13.30;10.10;;;;;;;;;;5093187;28;20039;-75
2023/06/25 02:16:41;;;;;;;19.95;10.10;;;;;;;;;;5091461;28;20047;-75
2023/06/25 02:19:07;;;;;;;15.73;9.80;;;;;;;;;;5068631;28;20382;-75
2023/06/25 02:21:33;;;;;;;17.88;10.38;;;;;;;;;;5085195;28;20066;-75
2023/06/25 02:23:59;;;;;;;13.75;10.20;;;;;;;;;;5091471;28;20100;-76
2023/06/25 02:26:25;;;;;;;15.05;9.90;;;;;;;;;;5091659;28;20048;-75
2023/06/25 02:28:51;;;;;;;14.30;10.13;;;;;;;;;;5091066;28;20094;-75
2023/06/25 02:31:18;;;;;;;15.27;10.50;;;;;;;;;;5049342;28;20047;-77
2023/06/25 02:33:44;;;;;;;15.23;10.40;;;;;;;;;;5086864;28;20032;-77
2023/06/25 02:36:10;;;;;;;13.88;9.95;;;;;;;;;;5091435;28;20082;-77
2023/06/25 02:38:36;;;;;;;17.50;12.25;;;;;;;;;;5091434;28;20401;-77
2023/06/25 02:41:02;;;;;;;15.57;11.68;;;;;;;;;;5055876;28;20114;-75
2023/06/25 02:43:29;;;;;;;15.25;11.10;;;;;;;;;;5083413;28;20127;-75
2023/06/25 02:45:55;;;;;;;17.70;12.02;;;;;;;;;;5090847;28;20483;-75
2023/06/25 02:48:21;;;;;;;19.05;11.80;;;;;;;;;;5091301;28;20046;-75
2023/06/25 02:50:47;;;;;;;16.67;11.25;;;;;;;;;;5092215;28;20040;-75
2023/06/25 02:53:13;;;;;;;17.80;11.70;;;;;;;;;;5091129;28;20038;-75
2023/06/25 02:55:39;;;;;;;19.92;12.07;;;;;;;;;;5091205;28;20051;-77
2023/06/25 02:58:05;;;;;;;18.13;12.50;;;;;;;;;;5090612;28;20039;-77
2023/06/25 03:00:31;;;;;;;18.85;12.32;;;;;;;;;;5092528;28;20050;-77
2023/06/25 03:02:57;;;;;;;17.88;11.90;;;;;;;;;;5090694;28;20048;-77
2023/06/25 03:05:23;;;;;;;17.00;12.07;;;;;;;;;;5091269;28;20526;-78
2023/06/25 03:07:50;;;;;;;20.42;12.77;;;;;;;;;;5090886;28;20500;-77
2023/06/25 03:10:16;;;;;;;20.60;14.18;;;;;;;;;;5091906;28;20036;-77
2023/06/25 03:12:42;;;;;;;22.40;14.23;;;;;;;;;;5074528;28;20071;-77
2023/06/25 03:15:09;;;;;;;21.13;14.13;;;;;;;;;;5092192;28;20449;-77
2023/06/25 03:17:35;;;;;;;22.77;14.30;;;;;;;;;;5091518;28;20048;-77
2023/06/25 03:20:03;;;;;;;23.25;15.35;;;;;;;;;;5057094;28;20047;-77
2023/06/25 03:22:29;;;;;;;24.90;15.30;;;;;;;;;;5074738;28;20173;-77
2023/06/25 03:24:55;;;;;;;23.40;14.23;;;;;;;;;;5090510;28;20048;-77
2023/06/25 03:27:21;;;;;;;21.70;14.88;;;;;;;;;;5090645;28;20040;-75
2023/06/25 03:29:47;;;;;;;22.80;14.77;;;;;;;;;;5073685;28;20494;-75
2023/06/25 03:32:14;;;;;;;24.52;15.95;;;;;;;;;;5091920;28;20107;-75
2023/06/25 03:34:40;;;;;;;26.30;15.23;;;;;;;;;;5090686;28;20032;-75
2023/06/25 03:37:06;;;;;;;22.58;14.75;;;;;;;;;;5091778;28;20044;-75
2023/06/25 03:39:32;;;;;;;22.40;15.07;;;;;;;;;;5090689;28;20123;-77
2023/06/25 03:41:58;;;;;;;20.35;13.68;;;;;;;;;;5073656;28;20051;-77
2023/06/25 03:44:24;;;;;;;21.05;13.73;;;;;;;;;;5091554;28;20039;-77
2023/06/25 03:46:50;;;;;;;22.80;13.65;;;;;;;;;;5090676;28;20463;-78
2023/06/25 03:49:16;;;;;;;22.15;13.45;;;;;;;;;;5090440;28;20048;-79
2023/06/25 03:51:42;;;;;;;22.65;14.40;;;;;;;;;;5091775;28;20096;-77
2023/06/25 03:54:08;;;;;;;21.17;14.80;;;;;;;;;;5090196;28;20040;-78
2023/06/25 03:56:34;;;;;;;24.35;13.80;;;;;;;;;;5074041;28;20032;-78
2023/06/25 03:59:00;;;;;;;21.25;14.30;;;;;;;;;;5090143;28;20039;-78
2023/06/25 04:01:26;;;;;;;20.25;14.02;;;;;;;;;;5086380;28;20037;-78
2023/06/25 04:03:52;;;;;;;20.77;14.15;;;;;;;;;;5089745;28;20386;-78
2023/06/25 04:06:19;;;;;;;22.40;13.80;;;;;;;;;;5089748;28;20036;-78
2023/06/25 04:08:45;;;;;;;21.63;14.40;;;;;;;;;;5091798;28;20044;-78
2023/06/25 04:11:11;;;;;;;20.38;13.93;;;;;;;;;;5090168;28;20484;-78
2023/06/25 04:13:37;;;;;;;20.45;13.05;;;;;;;;;;5090288;28;20032;-78
2023/06/25 04:16:03;;;;;;;19.80;12.27;;;;;;;;;;5091347;28;20044;-78
2023/06/25 04:18:29;;;;;;;22.40;13.65;;;;;;;;;;5091166;28;20068;-77
2023/06/25 04:20:56;;;;;;;21.30;13.35;;;;;;;;;;5090023;28;20035;-78
2023/06/25 04:23:22;;;;;;;19.75;12.45;;;;;;;;;;5092652;28;20043;-78
2023/06/25 04:25:48;;;;;;;18.48;13.23;;;;;;;;;;5076123;28;20115;-78
2023/06/25 04:28:17;;;;;;;18.80;12.95;;;;;;;;;;5093455;28;20050;-78
2023/06/25 04:30:43;;;;;;;17.85;12.82;;;;;;;;;;5093058;28;20059;-78
2023/06/25 04:33:09;;;;;;;19.67;12.75;;;;;;;;;;5076602;28;20047;-77
2023/06/25 04:35:35;;;;;;;15.60;11.65;;;;;;;;;;5074518;28;20040;-78
2023/06/25 04:38:01;;;;;;;16.65;11.98;;;;;;;;;;5093371;28;20040;-75
2023/06/25 04:40:27;;;;;;;16.60;11.15;;;;;;;;;;5093607;28;20039;-77
2023/06/25 04:42:54;;;;;;;15.88;11.60;;;;;;;;;;5093505;28;20119;-79
2023/06/25 04:45:20;;;;;;;15.40;11.40;;;;;;;;;;5094580;28;20056;-78
2023/06/25 04:47:46;;;;;;;16.17;11.32;;;;;;;;;;5093364;28;20055;-76
2023/06/25 04:50:12;;;;;;;15.82;11.07;;;;;;;;;;5093209;28;20047;-79
2023/06/25 04:52:38;;;;;;;14.93;10.65;;;;;;;;;;5060104;28;20097;-79
2023/06/25 04:55:04;;;;;;;15.45;11.07;;;;;;;;;;5092941;28;20078;-79
2023/06/25 04:57:31;;;;;;;14.27;11.13;;;;;;;;;;5093416;28;20051;-78
2023/06/25 04:59:57;;;;;;;15.48;10.93;;;;;;;;;;5076457;28;20040;-78
2023/06/25 05:02:23;;;;;;;14.15;10.13;;;;;;;;;;5093519;28;20492;-78
2023/06/25 05:04:50;;;;;;;15.70;10.82;;;;;;;;;;5093331;28;20044;-75
2023/06/25 05:07:16;;;;;;;14.70;10.65;;;;;;;;;;5093149;28;20048;-76
2023/06/25 05:09:43;;;;;;;13.98;9.57;;;;;;;;;;5093093;28;20481;-77
2023/06/25 05:12:09;;;;;;;14.57;10.07;;;;;;;;;;5093042;28;20370;-76
2023/06/25 05:14:35;;;;;;;15.80;10.45;;;;;;;;;;5076270;28;20044;-76
2023/06/25 05:17:01;;;;;;;15.35;10.35;;;;;;;;;;5092499;28;20036;-76
2023/06/25 05:19:27;;;;;;;14.45;10.50;;;;;;;;;;5093002;28;20098;-77
2023/06/25 05:21:53;;;;;;;12.77;9.10;;;;;;;;;;5092972;28;20051;-75
2023/06/25 05:24:19;;;;;;;14.60;10.05;;;;;;;;;;5092477;28;20044;-76
2023/06/25 05:26:45;;;;;;;13.07;9.82;;;;;;;;;;5093309;28;20044;-75
2023/06/25 05:29:11;;;;;;;13.98;10.00;;;;;;;;;;5092184;28;20093;-76
2023/06/25 05:31:37;;;;;;;13.93;9.55;;;;;;;;;;5075950;28;20044;-78
2023/06/25 05:34:04;;;;;;;12.95;9.90;;;;;;;;;;5092134;28;20113;-77
2023/06/25 05:36:30;;;;;;;13.23;9.77;;;;;;;;;;5094106;28;20040;-76
2023/06/25 05:38:56;;;;;;;15.35;10.13;;;;;;;;;;5093783;28;20043;-77
2023/06/25 05:41:22;;;;;;;13.20;9.90;;;;;;;;;;5092258;28;20449;-77
2023/06/25 05:43:48;;;;;;;13.13;9.13;;;;;;;;;;5093743;28;20047;-76
2023/06/25 05:46:14;;;;;;;12.05;9.00;;;;;;;;;;5091894;28;20131;-76
2023/06/25 05:48:41;;;;;;;12.93;9.23;;;;;;;;;;5092313;28;20060;-76
2023/06/25 05:51:07;;;;;;;14.90;10.18;;;;;;;;;;5091861;28;20047;-76
2023/06/25 05:53:44;;;;;;;12.02;8.95;;;;;;;;;;5092667;28;20481;-77
2023/06/25 05:56:10;;;;;;;13.57;10.23;;;;;;;;;;5091822;28;20048;-77
2023/06/25 05:58:37;;;;;;;12.90;9.45;;;;;;;;;;5092259;28;20089;-76
2023/06/25 06:01:04;;;;;;;11.15;9.18;;;;;;;;;;5093513;28;20119;-77
2023/06/25 06:03:30;;;;;;;11.23;9.00;;;;;;;;;;5075537;28;20046;-77
2023/06/25 06:05:57;;;;;;;12.43;10.05;;;;;;;;;;5093730;28;20039;-77
2023/06/25 06:08:23;;;;;;;13.68;9.60;;;;;;;;;;5091740;28;20040;-76
2023/06/25 06:10:49;;;;;;;12.93;9.43;;;;;;;;;;5092308;28;20427;-75
2023/06/25 06:13:16;;;;;;;12.68;9.55;;;;;;;;;;5091378;28;20048;-76
2023/06/25 06:15:42;;;;;;;12.90;10.02;;;;;;;;;;5092295;28;20484;-76
2023/06/25 06:18:08;;;;;;;12.13;9.82;;;;;;;;;;5092070;28;20484;-77
2023/06/25 06:20:34;;;;;;;11.95;10.30;;;;;;;;;;5091665;28;20070;-76
2023/06/25 06:23:02;;;;;;;12.05;9.40;;;;;;;;;;5075350;28;20520;-76
2023/06/25 06:25:28;;;;;;;12.90;10.52;;;;;;;;;;5092470;28;20051;-76
2023/06/25 06:27:54;;;;;;;11.65;9.55;;;;;;;;;;5091774;28;20036;-77
2023/06/25 06:30:21;;;;;;;14.40;10.45;;;;;;;;;;5074235;28;20059;-76
2023/06/25 06:32:47;;;;;;;11.93;10.15;;;;;;;;;;5091746;28;20068;-75
2023/06/25 06:35:15;;;;;;;13.35;9.82;;;;;;;;;;5091073;28;20048;-76
2023/06/25 06:37:41;;;;;;;13.90;10.23;;;;;;;;;;5091547;28;20040;-76
2023/06/25 06:40:07;;;;;;;11.77;9.70;;;;;;;;;;5091336;28;20036;-76
2023/06/25 06:42:34;;;;;;;15.85;9.70;;;;;;;;;;5073977;28;20075;-76
2023/06/25 06:45:00;;;;;;;11.25;9.95;;;;;;;;;;5090819;28;20063;-75
2023/06/25 06:47:26;;;;;;;10.80;9.13;;;;;;;;;;5074562;28;20481;-77
2023/06/25 06:49:52;;;;;;;14.65;9.60;;;;;;;;;;5090957;28;20043;-76
2023/06/25 06:52:24;;;;;;;10.13;8.88;;;;;;;;;;5092213;28;20059;-76
2023/06/25 06:54:50;;;;;;;11.80;9.65;;;;;;;;;;5090939;28;20059;-76
2023/06/25 06:57:16;;;;;;;11.88;9.38;;;;;;;;;;5090907;28;20039;-75
2023/06/25 06:59:42;;;;;;;12.35;9.90;;;;;;;;;;5092238;28;20039;-76
2023/06/25 07:02:08;;;;;;;11.45;9.43;;;;;;;;;;5091492;28;20515;-76
2023/06/25 07:04:34;;;;;;;11.05;9.65;;;;;;;;;;5091134;28;20047;-77
2023/06/25 07:07:00;;;;;;;12.20;9.98;;;;;;;;;;5091073;28;20050;-75
2023/06/25 07:09:26;;;;;;;13.73;10.00;;;;;;;;;;5090454;28;20055;-76
2023/06/25 07:11:53;;;;;;;12.07;9.18;;;;;;;;;;5091221;28;20392;-76
2023/06/25 07:14:19;;;;;;;12.95;9.05;;;;;;;;;;5090546;28;20071;-76
2023/06/25 07:16:45;;;;;;;11.95;9.55;;;;;;;;;;5092154;28;20046;-76
2023/06/25 07:19:12;;;;;;;11.80;9.55;;;;;;;;;;5091267;28;20546;-76
2023/06/25 07:21:38;;;;;;;10.45;8.88;;;;;;;;;;5090426;28;20066;-77
2023/06/25 07:24:04;;;;;;;12.32;9.88;;;;;;;;;;5090802;28;20044;-76
2023/06/25 07:26:30;;;;;;;12.32;9.38;;;;;;;;;;5090817;28;20476;-76
2023/06/25 07:28:57;;;;;;;11.80;8.80;;;;;;;;;;5074078;28;20102;-76
2023/06/25 07:31:23;;;;;;;10.90;9.52;;;;;;;;;;5091805;28;20032;-76
2023/06/25 07:33:49;;;;;;;9.70;8.38;;;;;;;;;;5090579;28;20047;-76
2023/06/25 07:36:15;;;;;;;9.40;8.32;;;;;;;;;;5092069;28;20051;-77
2023/06/25 07:38:41;;;;;;;10.35;7.90;;;;;;;;;;5073754;28;20109;-76
2023/06/25 07:41:07;;;;;;;9.30;7.65;;;;;;;;;;5090566;28;20044;-75
2023/06/25 07:43:34;;;;;;;10.10;7.97;;;;;;;;;;5090303;28;20043;-76
2023/06/25 07:46:00;;;;;;;11.88;6.93;;;;;;;;;;5090376;28;20052;-77
2023/06/25 07:48:26;;;;;;;8.07;7.10;;;;;;;;;;5090375;28;20044;-75
2023/06/25 07:50:52;;;;;;;7.85;6.13;;;;;;;;;;5091675;28;20043;-75
2023/06/25 07:53:18;;;;;;;9.40;7.30;;;;;;;;;;5091236;28;20028;-75
2023/06/25 07:55:46;;;;;;;8.25;6.80;;;;;;;;;;5073667;28;20032;-75
2023/06/25 07:58:12;;;;;;;8.20;6.25;;;;;;;;;;5094591;28;20062;-75
2023/06/25 08:00:38;;;;;;;7.97;7.18;;;;;;;;;;5095436;28;20075;-76
2023/06/25 08:03:04;;;;;;;8.48;6.32;;;;;;;;;;5094356;28;20048;-73
2023/06/25 08:05:30;;;;;;;8.27;6.97;;;;;;;;;;5094172;28;20071;-74
2023/06/25 08:07:56;;;;;;;9.15;7.18;;;;;;;;;;5094445;28;20044;-74
2023/06/25 08:10:23;;;;;;;8.82;7.03;;;;;;;;;;5093763;28;20087;-77
2023/06/25 08:12:50;;;;;;;10.45;7.82;;;;;;;;;;5094739;28;20040;-77
2023/06/25 08:15:16;;;;;;;10.00;8.05;;;;;;;;;;5094075;28;20039;-76
2023/06/25 08:17:42;;;;;;;9.45;7.18;;;;;;;;;;5095326;28;20485;-75
2023/06/25 08:20:08;;;;;;;8.82;6.25;;;;;;;;;;5094106;28;20047;-76
2023/06/25 08:22:34;;;;;;;9.98;7.43;;;;;;;;;;5094140;28;20400;-75
2023/06/25 08:25:00;;;;;;;8.35;5.78;;;;;;;;;;5094013;28;20173;-76
2023/06/25 08:27:26;;;;;;;8.85;5.75;;;;;;;;;;5094973;28;20047;-75
2023/06/25 08:29:52;;;;;;;8.57;6.63;;;;;;;;;;5095384;28;20052;-75
2023/06/25 08:32:18;;;;;;;7.97;5.93;;;;;;;;;;5093835;28;20032;-74
2023/06/25 08:34:44;;;;;;;7.43;5.72;;;;;;;;;;5093685;28;20040;-74
2023/06/25 08:37:10;;;;;;;7.45;6.20;;;;;;;;;;5093550;28;20051;-73
2023/06/25 08:39:36;;;;;;;8.43;6.60;;;;;;;;;;5093844;28;20507;-74
2023/06/25 08:42:03;;;;;;;8.48;5.75;;;;;;;;;;5095009;28;20044;-73
2023/06/25 08:44:29;;;;;;;7.93;5.82;;;;;;;;;;5093169;28;20127;-73
2023/06/25 08:46:55;;;;;;;8.43;6.40;;;;;;;;;;5093717;28;20044;-73
2023/06/25 08:49:23;;;;;;;6.50;5.22;;;;;;;;;;5076740;28;20138;-75
2023/06/25 08:51:52;;;;;;;8.52;4.28;;;;;;;;;;5076558;28;20048;-76
2023/06/25 08:54:18;;;;;;;7.82;4.82;;;;;;;;;;5093734;28;20109;-75
2023/06/25 08:56:44;;;;;;;5.93;3.95;;;;;;;;;;5093194;28;20079;-75
2023/06/25 08:59:10;;;;;;;6.60;4.05;;;;;;;;;;5076781;28;20051;-75
2023/06/25 09:01:36;;;;;;;8.57;4.90;;;;;;;;;;5093187;28;20051;-75
2023/06/25 09:04:02;;;;;;;7.38;5.15;;;;;;;;;;5076401;28;20044;-75
2023/06/25 09:06:29;;;;;;;8.50;5.82;;;;;;;;;;5094231;28;20108;-75
2023/06/25 09:08:55;;;;;;;8.45;6.50;;;;;;;;;;5076020;28;20078;-75
2023/06/25 09:11:21;;;;;;;8.20;5.65;;;;;;;;;;5093226;28;20036;-75
2023/06/25 09:13:47;;;;;;;8.90;5.18;;;;;;;;;;5076191;28;20401;-77
2023/06/25 09:16:13;;;;;;;6.72;4.47;;;;;;;;;;5076493;28;20044;-75
2023/06/25 09:18:39;;;;;;;8.52;4.90;;;;;;;;;;5092884;28;20065;-77
2023/06/25 09:21:09;;;;;;;7.78;5.10;;;;;;;;;;5093216;28;20420;-76
2023/06/25 09:23:38;;;;;;;8.70;5.13;;;;;;;;;;5094160;28;20047;-75
2023/06/25 09:26:06;;;;;;;6.60;4.80;;;;;;;;;;5094409;28;20485;-75
2023/06/25 09:28:32;;;;;;;8.00;4.90;;;;;;;;;;5092525;28;20115;-76
2023/06/25 09:30:58;;;;;;;7.47;5.03;;;;;;;;;;5092813;28;20113;-76
2023/06/25 09:33:31;;;;;;;7.43;3.90;;;;;;;;;;5093952;28;20063;-76
2023/06/25 09:36:03;;;;;;;7.85;4.05;;;;;;;;;;5080169;28;20040;-77
2023/06/25 09:38:30;;;;;;;9.70;4.93;;;;;;;;;;5092793;28;20093;-76
2023/06/25 09:40:59;;;;;;;7.80;5.00;;;;;;;;;;5093818;28;20035;-76
2023/06/25 09:43:26;;;;;;;10.43;5.20;;;;;;;;;;5092735;28;20556;-75
2023/06/25 09:45:53;;;;;;;9.25;5.45;;;;;;;;;;5093387;28;20059;-75
2023/06/25 09:48:26;;;;;;;9.23;5.57;;;;;;;;;;5092975;28;20040;-75
2023/06/25 09:50:59;;;;;;;8.23;5.15;;;;;;;;;;5092187;28;20090;-76
2023/06/25 09:53:27;;;;;;;10.73;5.85;;;;;;;;;;5078645;28;20450;-75
2023/06/25 09:55:54;;;;;;;8.38;5.18;;;;;;;;;;5092391;28;20447;-76
2023/06/25 09:58:21;;;;;;;10.73;6.45;;;;;;;;;;5092047;28;20073;-75
2023/06/25 10:00:47;;;;;;;10.52;6.45;;;;;;;;;;5092271;28;20507;-75
2023/06/25 10:03:14;;;;;;;10.88;5.90;;;;;;;;;;5092249;28;20557;-75
2023/06/25 10:05:40;;;;;;;11.10;6.15;;;;;;;;;;5093063;28;20114;-77
2023/06/25 10:08:06;;;;;;;11.02;6.10;;;;;;;;;;5093317;28;20044;-76
2023/06/25 10:10:32;;;;;;;13.20;6.68;;;;;;;;;;5093308;28;20046;-76
2023/06/25 10:13:02;;;;;;;11.68;6.38;;;;;;;;;;5092978;28;20463;-75
2023/06/25 10:15:28;;;;;;;13.43;6.25;;;;;;;;;;5092232;28;20506;-76
2023/06/25 10:17:54;;;;;;;12.18;6.40;;;;;;;;;;5091955;28;20044;-78
2023/06/25 10:20:28;;;;;;;11.43;6.07;;;;;;;;;;5091386;28;20385;-76
2023/06/25 10:23:13;;;;;;;10.10;5.65;;;;;;;;;;5093129;28;20473;-75
2023/06/25 10:25:59;;;;;;;9.45;5.43;;;;;;;;;;5091278;28;20075;-76
2023/06/25 10:28:34;;;;;;;10.00;5.63;;;;;;;;;;5092760;28;20125;-76
2023/06/25 10:31:00;;;;;;;7.95;4.75;;;;;;;;;;5091832;28;20408;-76
2023/06/25 10:33:32;;;;;;;8.00;4.80;;;;;;;;;;5092031;28;20109;-77
2023/06/25 10:35:59;;;;;;;6.50;4.53;;;;;;;;;;5091414;28;20044;-76
2023/06/25 10:38:25;;;;;;;7.75;4.68;;;;;;;;;;5092913;28;20040;-75
2023/06/25 10:40:51;;;;;;;8.02;4.47;;;;;;;;;;5092933;28;20036;-76
2023/06/25 10:43:21;;;;;;;5.57;3.95;;;;;;;;;;5092790;28;20097;-76
2023/06/25 10:45:50;;;;;;;6.03;3.80;;;;;;;;;;5074041;28;20083;-76
2023/06/25 10:48:16;;;;;;;5.82;3.72;;;;;;;;;;5091316;28;20052;-75
2023/06/25 10:50:42;;;;;;;6.20;4.15;;;;;;;;;;5091262;28;20044;-75
2023/06/25 10:53:11;;;;;;;9.10;4.18;;;;;;;;;;5091408;28;20038;-77
2023/06/25 10:55:38;;;;;;;6.05;4.15;;;;;;;;;;5091328;28;20043;-76
2023/06/25 10:58:04;;;;;;;6.45;4.20;;;;;;;;;;5092273;28;20032;-76
2023/06/25 11:00:31;;;;;;;5.72;3.58;;;;;;;;;;5091495;28;20055;-75
2023/06/25 11:02:57;;;;;;;5.80;4.05;;;;;;;;;;5090597;28;20178;-76
2023/06/25 11:05:34;;;;;;;6.28;3.75;;;;;;;;;;5074352;28;20040;-75
2023/06/25 11:08:00;;;;;;;6.78;3.90;;;;;;;;;;5090861;28;20501;-75
2023/06/25 11:10:27;;;;;;;5.57;3.67;;;;;;;;;;5092378;28;20039;-76
2023/06/25 11:12:55;;;;;;;7.32;3.80;;;;;;;;;;5074110;28;20556;-77
2023/06/25 11:15:21;;;;;;;6.15;3.60;;;;;;;;;;5091371;28;20046;-76
2023/06/25 11:17:50;;;;;;;5.18;3.30;;;;;;;;;;5073687;28;20105;-74
2023/06/25 11:20:16;;;;;;;4.40;2.95;;;;;;;;;;5092116;28;20105;-73
2023/06/25 11:22:43;;;;;;;4.40;3.05;;;;;;;;;;5090476;28;20071;-74
2023/06/25 11:25:11;;;;;;;4.93;3.15;;;;;;;;;;5091152;28;20052;-73
2023/06/25 11:27:37;;;;;;;4.68;3.50;;;;;;;;;;5090827;28;20048;-72
2023/06/25 11:30:04;;;;;;;4.80;3.83;;;;;;;;;;5090338;28;20131;-73
2023/06/25 11:32:30;;;;;;;6.78;3.60;;;;;;;;;;5097351;28;20040;-76
2023/06/25 11:34:57;;;;;;;4.65;3.70;;;;;;;;;;5080500;28;20097;-76
2023/06/25 11:37:23;;;;;;;4.90;3.65;;;;;;;;;;5097504;28;20032;-78
2023/06/25 11:39:50;;;;;;;6.35;3.85;;;;;;;;;;5097317;28;20066;-75
2023/06/25 11:42:17;;;;;;;4.18;3.42;;;;;;;;;;5097698;28;20044;-75
2023/06/25 11:44:44;;;;;;;5.03;3.58;;;;;;;;;;5080458;28;20396;-77
2023/06/25 11:47:13;;;;;;;4.80;3.67;;;;;;;;;;5097526;28;20044;-76
2023/06/25 11:49:39;;;;;;;6.70;3.88;;;;;;;;;;5097429;28;20032;-76
2023/06/25 11:52:06;;;;;;;5.35;3.88;;;;;;;;;;5097389;28;20899;-75
2023/06/25 11:54:32;;;;;;;7.97;3.80;;;;;;;;;;5097378;28;20048;-75
2023/06/25 11:56:58;;;;;;;6.63;4.10;;;;;;;;;;5097319;28;20388;-75
2023/06/25 11:59:24;;;;;;;5.63;3.95;;;;;;;;;;5097118;28;20085;-76
2023/06/25 12:01:50;;;;;;;6.00;4.00;;;;;;;;;;5096989;28;20036;-76
2023/06/25 12:04:17;;;;;;;4.97;3.90;;;;;;;;;;5097208;28;20048;-75
2023/06/25 12:06:43;;;;;;;6.00;3.80;;;;;;;;;;5098624;28;20085;-76
2023/06/25 12:09:09;;;;;;;5.82;3.70;;;;;;;;;;5098068;28;20044;-77
2023/06/25 12:11:37;;;;;;;5.00;3.80;;;;;;;;;;5097376;28;20388;-76
2023/06/25 12:14:03;;;;;;;4.38;3.70;;;;;;;;;;5097875;28;20043;-75
2023/06/25 12:16:29;;;;;;;6.20;4.00;;;;;;;;;;5098783;28;20044;-75
2023/06/25 12:18:56;;;;;;;6.28;3.88;;;;;;;;;;5096772;28;20089;-76
2023/06/25 12:21:22;;;;;;;8.75;4.22;;;;;;;;;;5098543;28;20040;-75
2023/06/25 12:23:48;;;;;;;6.10;4.30;;;;;;;;;;5096879;28;20040;-76
2023/06/25 12:26:14;;;;;;;5.07;3.92;;;;;;;;;;5097957;28;20043;-76
2023/06/25 12:28:40;;;;;;;5.70;3.92;;;;;;;;;;5097059;28;20439;-76
2023/06/25 12:31:06;;;;;;;8.65;3.97;;;;;;;;;;5098194;28;20069;-76
2023/06/25 12:33:33;;;;;;;6.70;3.85;;;;;;;;;;5079878;28;20040;-75
2023/06/25 12:35:59;;;;;;;4.95;3.95;;;;;;;;;;5098108;28;20404;-76
2023/06/25 12:38:25;;;;;;;5.57;4.00;;;;;;;;;;5097352;28;20388;-76
2023/06/25 12:40:56;;;;;;;6.95;3.90;;;;;;;;;;5096883;28;20040;-76
2023/06/25 12:43:23;;;;;;;4.72;3.75;;;;;;;;;;5095553;28;20044;-75
2023/06/25 12:45:49;;;;;;;6.35;4.38;;;;;;;;;;5093451;28;20047;-75
2023/06/25 12:48:15;;;;;;;6.35;4.45;;;;;;;;;;5092957;28;20044;-76
2023/06/25 12:50:41;;;;;;;5.75;4.15;;;;;;;;;;5093547;28;20047;-75
2023/06/25 12:53:07;;;;;;;7.05;4.32;;;;;;;;;;5093225;28;20043;-76
2023/06/25 12:55:33;;;;;;;5.55;4.30;;;;;;;;;;5094655;28;20044;-72
2023/06/25 12:57:59;;;;;;;5.45;4.20;;;;;;;;;;5094576;28;20036;-72
2023/06/25 13:00:25;;;;;;;6.35;4.32;;;;;;;;;;5094749;28;20040;-74
2023/06/25 13:02:51;;;;;;;7.75;4.70;;;;;;;;;;5093725;28;20397;-73
2023/06/25 13:05:17;;;;;;;11.35;4.85;;;;;;;;;;5092941;28;20052;-73
2023/06/25 13:07:43;;;;;;;5.57;4.40;;;;;;;;;;5093506;28;20047;-73
2023/06/25 13:10:10;;;;;;;5.28;4.28;;;;;;;;;;5092599;28;20044;-72
2023/06/25 13:12:37;;;;;;;6.38;4.40;;;;;;;;;;5093259;28;20093;-73
2023/06/25 13:15:06;;;;;;;6.65;4.20;;;;;;;;;;5092518;28;20090;-72
2023/06/25 13:17:33;;;;;;;5.30;4.20;;;;;;;;;;5094412;28;20040;-74
2023/06/25 13:19:59;;;;;;;5.90;4.80;;;;;;;;;;5092737;28;20036;-73
2023/06/25 13:22:25;;;;;;;5.82;4.30;;;;;;;;;;5093008;28;20076;-74
2023/06/25 13:24:51;;;;;;;5.93;4.65;;;;;;;;;;5092870;28;20089;-72
2023/06/25 13:27:17;;;;;;;6.40;4.68;;;;;;;;;;5076072;28;20599;-72
2023/06/25 13:29:43;;;;;;;6.82;4.55;;;;;;;;;;5094298;28;20040;-72
2023/06/25 13:32:09;;;;;;;9.32;4.45;;;;;;;;;;5092658;28;20040;-72
2023/06/25 13:34:35;;;;;;;6.93;4.60;;;;;;;;;;5093940;28;20038;-72
2023/06/25 13:37:01;;;;;;;5.80;4.57;;;;;;;;;;5093653;28;20064;-72
2023/06/25 13:39:29;;;;;;;6.22;4.50;;;;;;;;;;5092602;28;20036;-71
2023/06/25 13:41:55;;;;;;;5.95;4.57;;;;;;;;;;5092727;28;20040;-72
2023/06/25 13:44:21;;;;;;;7.80;4.50;;;;;;;;;;5091864;28;20052;-73
2023/06/25 13:46:47;;;;;;;8.20;4.82;;;;;;;;;;5092600;28;20086;-71
2023/06/25 13:49:13;;;;;;;5.65;4.70;;;;;;;;;;5091969;28;20051;-72
2023/06/25 13:51:39;;;;;;;5.25;4.30;;;;;;;;;;5093533;28;20036;-72
2023/06/25 13:54:05;;;;;;;6.07;4.78;;;;;;;;;;5091563;28;20412;-72
2023/06/25 13:56:31;;;;;;;5.20;4.63;;;;;;;;;;5091781;28;20036;-73
2023/06/25 13:58:57;;;;;;;6.45;5.05;;;;;;;;;;5093765;28;20047;-72
2023/06/25 14:01:23;;;;;;;5.72;4.50;;;;;;;;;;5091707;28;20040;-74
2023/06/25 14:03:49;;;;;;;5.85;4.38;;;;;;;;;;5092303;28;20036;-72
2023/06/25 14:06:16;;;;;;;5.82;4.78;;;;;;;;;;5091855;28;20043;-76
2023/06/25 14:08:42;;;;;;;7.32;4.78;;;;;;;;;;5092272;28;20499;-72
2023/06/25 14:11:08;;;;;;;6.20;4.22;;;;;;;;;;5091571;28;20043;-73
2023/06/25 14:13:34;;;;;;;5.40;4.50;;;;;;;;;;5091961;28;20032;-72
2023/06/25 14:16:00;;;;;;;7.40;4.93;;;;;;;;;;5092042;28;20062;-72
2023/06/25 14:18:26;;;;;;;6.80;4.90;;;;;;;;;;5074650;28;20085;-72
2023/06/25 14:20:52;;;;;;;5.45;4.45;;;;;;;;;;5092077;28;20036;-73
2023/06/25 14:23:19;;;;;;;5.57;4.43;;;;;;;;;;5091510;28;20493;-72
2023/06/25 14:25:45;;;;;;;6.57;5.18;;;;;;;;;;5091682;28;20047;-72
2023/06/25 14:28:12;;;;;;;7.60;4.53;;;;;;;;;;5092842;28;20392;-70